createdAt,value
2022-09-21T00:00:00.186Z,10.2
2022-09-21T00:10:01.485Z,9.7
2022-09-21T00:20:00.156Z,9.8
2022-09-21T00:30:00.166Z,9.9
2022-09-21T00:40:00.296Z,10.0
2022-09-21T00:50:00.169Z,9.9
2022-09-21T01:00:00.199Z,9.9
2022-09-21T01:10:00.175Z,10.0
2022-09-21T01:20:00.187Z,10.1
2022-09-21T01:30:00.224Z,10.0
2022-09-21T01:40:00.286Z,10.4
2022-09-21T01:50:00.138Z,10.4
2022-09-21T02:00:00.248Z,10.1
2022-09-21T02:10:00.146Z,10.3
2022-09-21T02:20:00.150Z,10.3
2022-09-21T02:30:00.152Z,10.1
2022-09-21T02:40:01.667Z,9.7
2022-09-21T02:50:00.150Z,9.4
2022-09-21T03:00:00.179Z,9.2
2022-09-21T03:10:00.161Z,9.6
2022-09-21T03:20:00.180Z,9.5
2022-09-21T03:30:02.262Z,9.7
2022-09-21T03:40:00.281Z,9.8
2022-09-21T03:50:00.164Z,9.8
2022-09-21T04:00:00.148Z,9.8
2022-09-21T04:10:00.129Z,9.4
2022-09-21T04:20:00.125Z,9.4
2022-09-21T04:30:00.166Z,9.6
2022-09-21T04:40:00.235Z,9.5
2022-09-21T04:50:00.153Z,9.5
2022-09-21T05:00:01.275Z,9.4
2022-09-21T05:10:00.302Z,9.6
2022-09-21T05:20:00.172Z,9.7
2022-09-21T05:30:00.167Z,9.8
2022-09-21T05:40:00.239Z,9.5
2022-09-21T05:50:00.163Z,10.1
2022-09-21T06:00:00.177Z,10.2
2022-09-21T06:10:00.186Z,10.2
2022-09-21T06:20:00.173Z,10.7
2022-09-21T06:30:00.149Z,10.6
2022-09-21T06:40:00.214Z,11.1
2022-09-21T06:50:00.162Z,11.3
2022-09-21T07:00:00.153Z,11.6
2022-09-21T07:10:07.326Z,11.4
2022-09-21T07:20:00.174Z,11.7
2022-09-21T07:30:00.150Z,11.9
2022-09-21T07:40:00.223Z,12.3
2022-09-21T07:50:01.353Z,12.9
2022-09-21T08:00:00.154Z,13.0
2022-09-21T08:10:00.342Z,13.4
2022-09-21T08:20:01.000Z,13.8
2022-09-21T08:30:00.145Z,13.7
2022-09-21T08:40:00.316Z,14.1
2022-09-21T08:50:00.197Z,14.6
2022-09-21T09:00:00.164Z,15.0
2022-09-21T09:10:01.016Z,15.5
2022-09-21T09:20:00.153Z,15.4
2022-09-21T09:30:03.100Z,16.1
2022-09-21T09:40:00.296Z,15.5
2022-09-21T09:50:00.145Z,15.7
2022-09-21T10:00:00.154Z,16.0
2022-09-21T10:10:00.162Z,16.7
2022-09-21T10:20:00.171Z,17.2
2022-09-21T10:30:00.159Z,16.8
2022-09-21T10:40:00.266Z,19.7
2022-09-21T10:50:00.141Z,20.5
2022-09-21T11:00:00.149Z,18.0
2022-09-21T11:10:00.286Z,21.5
2022-09-21T11:20:01.370Z,21.5
2022-09-21T11:30:00.165Z,19.4
2022-09-21T11:40:00.309Z,17.4
2022-09-21T11:50:19.362Z,20.6
2022-09-21T12:00:00.179Z,20.2
2022-09-21T12:10:05.221Z,18.1
2022-09-21T12:20:00.169Z,17.4
2022-09-21T12:30:00.150Z,19.3
2022-09-21T12:40:00.232Z,21.7
2022-09-21T12:50:00.180Z,19.3
2022-09-21T13:00:00.207Z,17.4
2022-09-21T13:10:00.191Z,19.9
2022-09-21T13:20:00.202Z,18.9
2022-09-21T13:30:00.139Z,18.9
2022-09-21T13:40:00.269Z,21.3
2022-09-21T13:50:00.879Z,18.6
2022-09-21T14:00:00.192Z,19.0
2022-09-21T14:10:00.140Z,23.0
2022-09-21T14:20:00.178Z,22.2
2022-09-21T14:30:00.296Z,22.8
2022-09-21T14:40:00.239Z,23.9
2022-09-21T14:50:04.153Z,24.0
2022-09-21T15:00:00.153Z,20.2
2022-09-21T15:10:00.254Z,17.6
2022-09-21T15:20:00.201Z,20.6
2022-09-21T15:30:00.164Z,22.0
2022-09-21T15:40:00.238Z,22.7
2022-09-21T15:50:00.191Z,20.9
2022-09-21T16:00:00.157Z,20.0
2022-09-21T16:10:00.168Z,17.7
2022-09-21T16:20:00.186Z,19.1
2022-09-21T16:30:00.191Z,19.6
2022-09-21T16:40:00.304Z,19.1
2022-09-21T16:50:00.187Z,18.5
2022-09-21T17:00:00.174Z,17.3
2022-09-21T17:10:00.153Z,16.5
2022-09-21T17:20:00.193Z,15.8
2022-09-21T17:30:00.167Z,15.6
2022-09-21T17:40:00.315Z,15.4
2022-09-21T17:50:00.196Z,15.4
2022-09-21T18:00:00.168Z,15.3
2022-09-21T18:10:00.156Z,14.9
2022-09-21T18:20:00.168Z,14.7
2022-09-21T18:30:00.157Z,14.6
2022-09-21T18:40:00.297Z,14.5
2022-09-21T18:50:00.152Z,14.3
2022-09-21T19:00:00.166Z,13.9
2022-09-21T19:10:00.235Z,13.7
2022-09-21T19:20:00.202Z,13.4
2022-09-21T19:30:00.293Z,13.5
2022-09-21T19:40:00.318Z,13.6
2022-09-21T19:50:00.167Z,13.5
2022-09-21T20:00:00.177Z,13.0
2022-09-21T20:10:01.303Z,13.0
2022-09-21T20:20:00.194Z,13.0
2022-09-21T20:30:00.143Z,12.9
2022-09-21T20:40:00.306Z,12.9
2022-09-21T20:50:00.144Z,12.8
2022-09-21T21:00:00.214Z,12.4
2022-09-21T21:10:00.174Z,12.7
2022-09-21T21:20:00.178Z,12.9
2022-09-21T21:30:00.144Z,12.9
2022-09-21T21:40:00.353Z,13.1
2022-09-21T21:50:00.137Z,12.8
2022-09-21T22:00:01.438Z,12.9
2022-09-21T22:10:00.167Z,12.6
2022-09-21T22:20:00.161Z,12.9
2022-09-21T22:30:00.166Z,12.8
2022-09-21T22:40:04.179Z,13.1
2022-09-21T22:50:00.153Z,12.9
2022-09-21T23:00:00.166Z,12.3
2022-09-21T23:10:00.143Z,12.3
2022-09-21T23:20:00.165Z,12.2
2022-09-21T23:30:00.170Z,12.3
2022-09-21T23:40:00.359Z,12.5
2022-09-21T23:50:00.170Z,12.4
